Time;durP1;ratioP1;P1;durP2;ratioP2;P2;SDS_P1;SDS_P2;PMS_P1;PMS_P2;Temp;Humidity;BMP_temperature;BMP_pressure;BME280_temperature;BME280_humidity;BME280_pressure;Samples;Min_cycle;Max_cycle;Signal;HPM_P1;HPM_P2
2023/06/30 00:01:32;;;;;;;4.18;1.38;;;;;;;22.96;85.13;100426.78;4992588;28;20483;-66
2023/06/30 00:03:58;;;;;;;2.97;1.42;;;;;;;22.91;85.24;100430.09;4971482;28;20076;-66
2023/06/30 00:06:24;;;;;;;4.43;1.42;;;;;;;22.92;84.85;100428.88;4993765;28;20092;-66
2023/06/30 00:08:50;;;;;;;1.77;1.10;;;;;;;22.94;84.91;100427.22;4994503;28;20038;-66
2023/06/30 00:11:17;;;;;;;3.30;1.15;;;;;;;23.00;84.46;100430.94;4993812;28;20027;-66
2023/06/30 00:13:43;;;;;;;1.77;0.95;;;;;;;22.93;84.45;100427.69;4986270;28;20042;-65
2023/06/30 00:16:08;;;;;;;4.88;1.35;;;;;;;22.90;84.48;100434.06;4994292;28;20032;-67
2023/06/30 00:18:34;;;;;;;1.52;0.98;;;;;;;23.01;83.53;100432.50;4984576;28;20125;-67
2023/06/30 00:20:59;;;;;;;1.50;0.75;;;;;;;23.01;82.46;100427.00;4993471;28;20426;-67
2023/06/30 00:23:28;;;;;;;0.88;0.70;;;;;;;22.87;82.36;100434.94;4973737;28;20042;-67
2023/06/30 00:25:54;;;;;;;1.02;0.77;;;;;;;22.82;82.83;100424.53;4969838;28;21521;-67
2023/06/30 00:28:20;;;;;;;0.70;0.60;;;;;;;22.79;82.70;100431.66;4998164;28;20070;-67
2023/06/30 00:30:46;;;;;;;1.15;0.63;;;;;;;22.56;84.18;100423.78;4976955;28;20081;-66
2023/06/30 00:33:11;;;;;;;2.40;1.10;;;;;;;22.66;84.35;100428.19;4974087;28;20065;-67
2023/06/30 00:35:37;;;;;;;1.10;0.70;;;;;;;22.70;83.50;100426.09;4991982;28;20044;-67
2023/06/30 00:38:02;;;;;;;1.20;0.60;;;;;;;22.66;83.83;100428.19;4994367;28;20121;-67
2023/06/30 00:40:28;;;;;;;0.70;0.43;;;;;;;22.69;83.06;100430.03;4976144;28;20038;-67
2023/06/30 00:42:54;;;;;;;1.30;0.50;;;;;;;22.56;83.01;100417.50;4972626;28;20062;-67
2023/06/30 00:45:19;;;;;;;0.40;0.20;;;;;;;22.60;82.59;100421.72;4992544;28;20105;-67
2023/06/30 00:47:45;;;;;;;0.30;0.30;;;;;;;22.59;82.34;100414.66;4975804;28;20049;-67
2023/06/30 00:50:12;;;;;;;0.63;0.60;;;;;;;22.57;82.26;100405.34;4975266;28;20038;-67
2023/06/30 00:52:38;;;;;;;1.85;0.50;;;;;;;22.49;83.04;100401.28;4988961;28;20109;-66
2023/06/30 00:55:07;;;;;;;0.63;0.40;;;;;;;22.43;83.20;100392.84;4974569;28;20495;-67
2023/06/30 00:57:33;;;;;;;0.47;0.40;;;;;;;22.47;83.27;100390.75;4974495;28;20023;-67
2023/06/30 01:00:05;;;;;;;0.70;0.40;;;;;;;22.35;83.68;100392.28;4981256;28;20411;-66
2023/06/30 01:02:34;;;;;;;0.20;0.15;;;;;;;22.36;83.14;100410.28;4958176;28;20034;-66
2023/06/30 01:05:08;;;;;;;0.68;0.50;;;;;;;22.37;83.31;100414.59;4974592;28;20426;-67
2023/06/30 01:07:43;;;;;;;0.93;0.40;;;;;;;22.37;83.38;100405.56;4993982;28;20407;-67
2023/06/30 01:10:13;;;;;;;0.28;0.15;;;;;;;22.18;84.83;100404.59;4992760;28;20042;-67
2023/06/30 01:12:40;;;;;;;1.85;0.45;;;;;;;22.26;84.18;100416.13;4971803;28;20119;-66
2023/06/30 01:15:09;;;;;;;0.40;0.40;;;;;;;22.21;84.49;100417.44;4983046;28;20089;-67
2023/06/30 01:17:41;;;;;;;0.25;0.20;;;;;;;22.21;84.50;100411.19;4992826;28;20372;-67
2023/06/30 01:20:10;;;;;;;0.35;0.20;;;;;;;22.16;84.55;100415.22;4979081;28;20034;-67
2023/06/30 01:22:43;;;;;;;0.30;0.20;;;;;;;22.19;84.31;100413.59;4977196;28;20486;-67
2023/06/30 01:25:11;;;;;;;0.30;0.28;;;;;;;22.24;83.85;100429.53;4956991;28;20037;-67
2023/06/30 01:27:40;;;;;;;0.80;0.32;;;;;;;22.22;83.54;100420.97;4990979;28;20042;-67
2023/06/30 01:30:09;;;;;;;0.20;0.20;;;;;;;22.18;84.03;100414.81;4988150;28;20034;-67
2023/06/30 01:32:34;;;;;;;0.30;0.20;;;;;;;22.23;83.33;100423.25;4989772;28;20044;-67
2023/06/30 01:35:00;;;;;;;1.75;0.35;;;;;;;22.11;83.95;100415.78;4992646;28;20042;-66
2023/06/30 01:37:25;;;;;;;0.40;0.25;;;;;;;22.13;84.43;100415.34;4992017;28;20030;-67
2023/06/30 01:39:51;;;;;;;0.90;0.40;;;;;;;22.01;84.96;100425.09;4973620;28;20030;-67
2023/06/30 01:42:18;;;;;;;0.50;0.40;;;;;;;22.08;85.01;100415.91;4990554;28;20050;-66
2023/06/30 01:44:44;;;;;;;0.25;0.20;;;;;;;22.11;84.71;100404.03;4982532;28;20510;-67
2023/06/30 01:47:10;;;;;;;0.85;0.40;;;;;;;22.02;85.01;100417.66;4991940;28;20064;-67
2023/06/30 01:49:36;;;;;;;0.20;0.20;;;;;;;22.00;85.55;100417.31;4974562;28;20041;-68
2023/06/30 01:52:02;;;;;;;0.15;0.15;;;;;;;21.96;85.58;100414.69;4986914;28;20038;-66
2023/06/30 01:54:28;;;;;;;0.10;0.10;;;;;;;21.98;85.94;100412.28;4994565;28;20117;-67
2023/06/30 01:56:54;;;;;;;0.52;0.25;;;;;;;22.08;85.01;100421.38;4972910;28;20105;-67
2023/06/30 01:59:19;;;;;;;0.50;0.40;;;;;;;22.07;84.93;100408.88;4973964;28;20030;-67
2023/06/30 02:01:46;;;;;;;0.30;0.30;;;;;;;22.08;85.02;100424.91;4973014;28;20452;-67
2023/06/30 02:04:11;;;;;;;0.25;0.20;;;;;;;22.00;85.28;100423.59;4974113;28;20030;-66
2023/06/30 02:06:37;;;;;;;0.40;0.40;;;;;;;22.01;85.30;100433.34;4972247;28;20117;-67
2023/06/30 02:09:03;;;;;;;0.47;0.30;;;;;;;21.98;85.60;100433.44;4970330;28;20049;-66
2023/06/30 02:11:28;;;;;;;1.02;0.30;;;;;;;22.09;84.70;100425.66;4980731;28;20030;-65
2023/06/30 02:13:54;;;;;;;0.30;0.30;;;;;;;21.98;85.76;100422.47;4974263;28;20077;-64
2023/06/30 02:16:19;;;;;;;0.50;0.40;;;;;;;22.03;85.40;100414.47;4974373;28;20246;-65
2023/06/30 02:18:45;;;;;;;1.17;0.30;;;;;;;22.02;85.42;100412.16;4955064;28;20042;-68
2023/06/30 02:21:11;;;;;;;0.28;0.17;;;;;;;21.99;84.96;100399.34;4970226;28;20084;-67
2023/06/30 02:23:36;;;;;;;3.03;1.90;;;;;;;21.92;85.48;100392.09;4954652;28;20030;-65
2023/06/30 02:26:02;;;;;;;1.58;0.50;;;;;;;21.94;85.47;100394.38;4953907;28;20031;-67
2023/06/30 02:28:29;;;;;;;2.67;0.77;;;;;;;21.92;85.88;100402.28;4970831;28;20034;-66
2023/06/30 02:30:55;;;;;;;2.67;0.73;;;;;;;21.82;86.12;100411.59;4991756;28;20041;-66
2023/06/30 02:33:21;;;;;;;0.30;0.30;;;;;;;21.89;85.81;100419.63;4978267;28;20034;-66
2023/06/30 02:35:46;;;;;;;4.07;0.63;;;;;;;21.86;85.88;100421.25;4991715;28;20100;-65
2023/06/30 02:38:12;;;;;;;1.40;0.40;;;;;;;21.89;85.63;100414.13;4991891;28;20033;-66
2023/06/30 02:40:38;;;;;;;0.65;0.45;;;;;;;21.87;85.48;100413.81;4991996;28;20026;-66
2023/06/30 02:43:04;;;;;;;0.73;0.30;;;;;;;21.78;86.33;100419.13;4969082;28;20039;-67
2023/06/30 02:45:29;;;;;;;0.70;0.40;;;;;;;21.82;85.77;100417.06;4970812;28;20038;-67
2023/06/30 02:47:55;;;;;;;0.32;0.32;;;;;;;21.80;85.76;100416.72;4969431;28;20769;-69
2023/06/30 02:50:31;;;;;;;1.10;0.45;;;;;;;21.86;85.61;100432.22;4962573;28;20022;-67
2023/06/30 02:53:00;;;;;;;0.68;0.43;;;;;;;21.85;85.07;100429.94;4937576;28;20070;-66
2023/06/30 02:55:26;;;;;;;1.92;0.50;;;;;;;21.88;84.91;100431.78;4979283;28;20052;-66
2023/06/30 02:57:53;;;;;;;0.55;0.35;;;;;;;21.85;85.12;100430.69;4973492;28;20512;-66
2023/06/30 03:00:20;;;;;;;0.82;0.43;;;;;;;21.79;85.64;100424.19;4970740;28;20081;-66
2023/06/30 03:02:46;;;;;;;1.30;0.60;;;;;;;21.76;86.10;100427.78;4967586;28;20043;-69
2023/06/30 03:05:13;;;;;;;0.30;0.25;;;;;;;21.82;85.46;100430.78;4964971;28;20034;-66
2023/06/30 03:07:39;;;;;;;0.25;0.25;;;;;;;21.77;85.14;100434.03;4980826;28;20403;-66
2023/06/30 03:10:05;;;;;;;0.50;0.32;;;;;;;21.74;85.55;100434.94;4957220;28;20019;-66
2023/06/30 03:12:31;;;;;;;0.88;0.20;;;;;;;21.79;85.51;100428.91;4971899;28;20034;-66
2023/06/30 03:14:56;;;;;;;0.75;0.30;;;;;;;21.85;84.67;100436.19;4957750;28;20034;-66
2023/06/30 03:17:22;;;;;;;1.85;0.43;;;;;;;21.83;84.96;100437.81;4957837;28;20391;-66
2023/06/30 03:19:47;;;;;;;1.58;0.30;;;;;;;21.89;84.85;100433.34;4976806;28;20097;-67
2023/06/30 03:22:13;;;;;;;0.40;0.30;;;;;;;21.92;84.13;100424.22;4952454;28;20376;-66
2023/06/30 03:24:40;;;;;;;0.40;0.22;;;;;;;21.92;83.65;100437.94;4955910;28;20511;-66
2023/06/30 03:27:06;;;;;;;0.98;0.40;;;;;;;21.91;83.11;100426.19;5000687;28;20037;-66
2023/06/30 03:29:31;;;;;;;0.32;0.30;;;;;;;21.78;84.17;100424.59;4989968;28;20169;-67
2023/06/30 03:31:57;;;;;;;1.42;0.70;;;;;;;21.81;83.59;100434.75;4980604;28;20568;-67
2023/06/30 03:34:23;;;;;;;0.95;0.43;;;;;;;21.71;83.77;100431.06;5002966;28;20113;-65
2023/06/30 03:36:49;;;;;;;1.10;0.63;;;;;;;21.69;83.91;100427.22;4992411;28;20021;-65
2023/06/30 03:39:16;;;;;;;0.63;0.30;;;;;;;21.70;83.73;100439.75;4991738;28;20036;-65
2023/06/30 03:41:41;;;;;;;0.75;0.75;;;;;;;21.85;82.80;100433.44;4983207;28;20030;-68
2023/06/30 03:44:08;;;;;;;0.38;0.30;;;;;;;21.76;82.56;100441.50;4968175;28;20034;-68
2023/06/30 03:46:34;;;;;;;0.20;0.20;;;;;;;21.77;82.65;100434.03;4952891;28;20085;-65
2023/06/30 03:48:59;;;;;;;0.45;0.35;;;;;;;21.70;81.42;100426.78;4953271;28;20579;-65
2023/06/30 03:51:24;;;;;;;0.85;0.40;;;;;;;21.66;81.88;100417.16;4952290;28;20118;-69
2023/06/30 03:53:52;;;;;;;0.75;0.30;;;;;;;21.63;81.57;100418.00;4962649;28;20038;-64
2023/06/30 03:56:17;;;;;;;2.80;0.20;;;;;;;21.63;81.58;100413.28;4972506;28;20039;-65
2023/06/30 03:58:42;;;;;;;0.68;0.30;;;;;;;21.61;82.20;100402.00;4990504;28;20514;-66
2023/06/30 04:01:08;;;;;;;0.77;0.38;;;;;;;21.59;81.88;100404.41;4995225;23;20049;-65
2023/06/30 04:03:34;;;;;;;3.08;0.43;;;;;;;21.63;82.25;100407.03;4990801;28;20500;-64
2023/06/30 04:06:00;;;;;;;0.88;0.35;;;;;;;21.62;82.26;100403.53;4992652;28;20030;-64
2023/06/30 04:08:45;;;;;;;0.22;0.20;;;;;;;21.64;82.23;100395.63;4989951;28;20502;-64
2023/06/30 04:11:11;;;;;;;2.25;0.40;;;;;;;21.54;82.44;100400.22;4924277;29;20464;-63
2023/06/30 04:13:37;;;;;;;0.57;0.20;;;;;;;21.56;82.72;100397.06;4918933;29;20111;-63
2023/06/30 04:16:03;;;;;;;0.30;0.30;;;;;;;21.53;83.04;100397.91;4923100;29;20055;-66
2023/06/30 04:18:28;;;;;;;0.50;0.22;;;;;;;21.62;82.30;100406.28;4932212;29;20043;-66
2023/06/30 04:20:53;;;;;;;0.20;0.20;;;;;;;21.61;82.21;100420.41;4933135;29;20043;-64
2023/06/30 04:23:19;;;;;;;0.40;0.30;;;;;;;21.65;82.57;100415.59;4919770;29;20488;-63
2023/06/30 04:25:44;;;;;;;1.15;1.05;;;;;;;21.65;82.16;100415.59;4917127;29;20056;-66
2023/06/30 04:28:10;;;;;;;0.20;0.20;;;;;;;21.72;82.07;100409.91;4903323;29;20131;-67
2023/06/30 04:30:35;;;;;;;0.88;0.30;;;;;;;21.74;81.58;100408.25;4906357;29;20079;-63
2023/06/30 04:33:01;;;;;;;0.95;0.30;;;;;;;21.75;81.67;100417.25;4907131;29;20064;-65
2023/06/30 04:35:26;;;;;;;0.38;0.25;;;;;;;21.81;81.31;100405.34;4913606;29;20047;-65
2023/06/30 04:37:52;;;;;;;1.95;0.40;;;;;;;21.77;81.45;100403.88;4925626;29;20134;-63
2023/06/30 04:40:18;;;;;;;0.30;0.30;;;;;;;21.68;82.29;100403.78;4913225;29;20044;-65
2023/06/30 04:42:44;;;;;;;0.85;0.40;;;;;;;21.81;82.35;100401.84;4897802;29;20040;-65
2023/06/30 04:45:13;;;;;;;1.38;0.52;;;;;;;21.90;82.17;100410.16;4914357;29;20040;-64
2023/06/30 04:47:38;;;;;;;0.20;0.20;;;;;;;21.98;81.86;100417.00;4936860;28;20524;-64
2023/06/30 04:50:04;;;;;;;0.38;0.38;;;;;;;21.98;81.57;100412.28;4971657;28;20510;-65
2023/06/30 04:52:30;;;;;;;0.40;0.30;;;;;;;21.97;81.55;100407.25;4974908;28;20038;-64
2023/06/30 04:54:56;;;;;;;0.38;0.30;;;;;;;21.96;81.43;100411.94;4979139;28;20038;-64
2023/06/30 04:57:22;;;;;;;0.68;0.40;;;;;;;21.97;82.12;100420.94;4966382;28;20634;-64
2023/06/30 04:59:50;;;;;;;0.88;0.32;;;;;;;21.93;82.15;100420.28;4963602;28;20426;-64
2023/06/30 05:02:17;;;;;;;0.20;0.20;;;;;;;22.00;81.52;100420.06;4971042;28;20018;-64
2023/06/30 05:04:42;;;;;;;0.60;0.40;;;;;;;21.95;81.88;100426.09;4968198;28;20129;-64
2023/06/30 05:07:09;;;;;;;0.60;0.22;;;;;;;21.97;81.48;100431.91;4973591;28;20105;-64
2023/06/30 05:09:35;;;;;;;3.33;0.50;;;;;;;21.90;81.76;100429.38;4970355;28;20043;-63
2023/06/30 05:12:01;;;;;;;0.43;0.32;;;;;;;21.96;82.31;100425.66;4966115;28;20035;-64
2023/06/30 05:14:26;;;;;;;1.38;0.50;;;;;;;22.08;80.85;100426.88;4970767;28;20038;-64
2023/06/30 05:16:51;;;;;;;0.22;0.20;;;;;;;22.02;80.68;100434.13;4973996;28;20042;-64
2023/06/30 05:19:17;;;;;;;0.30;0.30;;;;;;;21.96;81.38;100424.88;4964865;28;20089;-65
2023/06/30 05:21:42;;;;;;;0.90;0.40;;;;;;;21.97;81.82;100427.19;4962336;28;20034;-64
2023/06/30 05:24:08;;;;;;;0.65;0.38;;;;;;;21.98;82.25;100427.97;4965143;28;20035;-65
2023/06/30 05:26:33;;;;;;;0.35;0.30;;;;;;;21.99;82.17;100435.75;4955200;28;20038;-65
2023/06/30 05:28:59;;;;;;;0.17;0.17;;;;;;;22.00;82.97;100436.53;4971789;28;20554;-62
2023/06/30 05:31:24;;;;;;;0.22;0.20;;;;;;;22.07;82.62;100437.06;4973576;28;20487;-63
2023/06/30 05:33:50;;;;;;;0.95;0.30;;;;;;;21.95;84.41;100445.31;4962616;28;20093;-66
2023/06/30 05:36:15;;;;;;;0.40;0.30;;;;;;;21.87;85.32;100450.22;4971517;28;20042;-62
2023/06/30 05:38:41;;;;;;;0.60;0.40;;;;;;;21.84;85.57;100451.09;4955830;28;20089;-63
2023/06/30 05:41:06;;;;;;;0.68;0.38;;;;;;;21.68;86.42;100456.59;4954043;28;20428;-63
2023/06/30 05:43:32;;;;;;;0.22;0.22;;;;;;;21.67;87.54;100446.09;4968172;28;20042;-64
2023/06/30 05:45:57;;;;;;;0.32;0.30;;;;;;;21.70;87.28;100447.97;4960274;28;20201;-63
2023/06/30 05:48:25;;;;;;;0.52;0.38;;;;;;;21.61;87.73;100445.84;4967832;28;20072;-66
2023/06/30 05:50:50;;;;;;;1.73;0.65;;;;;;;21.61;88.19;100436.84;4972624;28;20034;-64
2023/06/30 05:53:16;;;;;;;0.52;0.40;;;;;;;21.49;88.69;100435.63;4978751;28;20236;-63
2023/06/30 05:55:41;;;;;;;0.82;0.40;;;;;;;21.43;89.13;100426.38;4992153;28;20050;-63
2023/06/30 05:58:27;;;;;;;3.17;0.65;;;;;;;21.37;89.35;100417.94;4981161;28;20026;-63
2023/06/30 06:00:52;;;;;;;1.05;0.40;;;;;;;21.37;90.28;100417.16;4930952;29;20052;-65
2023/06/30 06:03:18;;;;;;;0.40;0.40;;;;;;;21.22;90.68;100416.78;4931249;29;20118;-64
2023/06/30 06:05:43;;;;;;;0.90;0.73;;;;;;;21.12;91.05;100423.31;4925705;29;20100;-64
2023/06/30 06:08:09;;;;;;;0.80;0.60;;;;;;;21.13;91.47;100421.34;4914035;29;20028;-65
2023/06/30 06:10:34;;;;;;;0.75;0.60;;;;;;;21.07;91.42;100442.25;4922150;29;20540;-62
2023/06/30 06:12:59;;;;;;;1.52;0.45;;;;;;;21.04;91.91;100440.38;4912116;29;20055;-62
2023/06/30 06:15:25;;;;;;;1.02;0.50;;;;;;;20.82;92.94;100440.13;4912114;29;20046;-66
2023/06/30 06:17:50;;;;;;;0.30;0.30;;;;;;;20.88;92.89;100440.38;4897041;29;20050;-67
2023/06/30 06:20:16;;;;;;;0.60;0.40;;;;;;;20.79;92.97;100440.22;4912608;29;20040;-64
2023/06/30 06:22:41;;;;;;;0.55;0.38;;;;;;;20.74;92.72;100441.50;4911304;29;20040;-66
2023/06/30 06:25:07;;;;;;;1.70;0.40;;;;;;;20.62;92.42;100450.38;4911629;29;20107;-63
2023/06/30 06:27:34;;;;;;;0.30;0.30;;;;;;;20.61;92.53;100446.13;4905043;29;20043;-64
2023/06/30 06:29:59;;;;;;;0.10;0.10;;;;;;;20.65;92.33;100441.34;4918053;29;20263;-64
2023/06/30 06:32:25;;;;;;;0.30;0.30;;;;;;;20.59;92.52;100454.00;4911877;29;20091;-63
2023/06/30 06:34:50;;;;;;;0.40;0.20;;;;;;;20.53;92.58;100451.00;4912619;29;20060;-63
2023/06/30 06:37:16;;;;;;;0.10;0.10;;;;;;;20.53;92.78;100456.47;4921141;29;20070;-65
2023/06/30 06:39:41;;;;;;;0.30;0.20;;;;;;;20.61;92.14;100451.59;4978783;28;20038;-67
2023/06/30 06:42:07;;;;;;;0.30;0.20;;;;;;;20.61;92.46;100446.88;4970895;28;20077;-66
2023/06/30 06:44:32;;;;;;;0.65;0.28;;;;;;;20.58;92.64;100450.47;4972029;28;20431;-65
2023/06/30 06:47:36;;;;;;;3.03;0.43;;;;;;;20.77;92.10;100456.28;4971880;28;20082;-66
2023/06/30 06:50:02;;;;;;;1.80;0.30;;;;;;;20.79;91.61;100460.13;4972251;28;20031;-65
2023/06/30 06:52:28;;;;;;;0.30;0.30;;;;;;;20.83;91.75;100454.59;4971004;28;20035;-67
2023/06/30 06:54:53;;;;;;;0.20;0.20;;;;;;;20.79;91.71;100462.88;4953197;28;20050;-63
2023/06/30 06:57:19;;;;;;;3.33;0.38;;;;;;;20.71;92.67;100460.75;4949978;28;20042;-64
2023/06/30 06:59:44;;;;;;;0.47;0.22;;;;;;;20.86;92.29;100459.97;4976414;28;20042;-63
2023/06/30 07:02:09;;;;;;;0.30;0.28;;;;;;;20.91;92.46;100462.19;4970752;28;20038;-63
2023/06/30 07:04:35;;;;;;;1.55;0.32;;;;;;;20.79;93.53;100464.84;4971278;28;20043;-63
2023/06/30 07:07:01;;;;;;;0.52;0.40;;;;;;;20.93;93.04;100473.47;4966911;28;20042;-62
2023/06/30 07:09:26;;;;;;;0.47;0.40;;;;;;;21.05;92.92;100467.34;4982189;28;20450;-62
2023/06/30 07:11:52;;;;;;;0.20;0.20;;;;;;;21.06;92.30;100479.81;4972946;28;20025;-64
2023/06/30 07:14:19;;;;;;;0.32;0.25;;;;;;;21.13;91.96;100479.66;4971733;28;20388;-70
2023/06/30 07:16:45;;;;;;;0.30;0.20;;;;;;;21.09;91.66;100480.94;4971861;28;20035;-66
2023/06/30 07:19:10;;;;;;;0.22;0.22;;;;;;;20.99;92.13;100482.72;4971609;28;20041;-62
2023/06/30 07:21:36;;;;;;;0.75;0.38;;;;;;;20.93;92.88;100498.13;4971204;28;20315;-64
2023/06/30 07:24:02;;;;;;;0.43;0.30;;;;;;;20.95;92.57;100501.19;4971592;28;20030;-65
2023/06/30 07:26:31;;;;;;;0.73;0.40;;;;;;;20.87;91.84;100504.53;4983224;28;20038;-63
2023/06/30 07:28:57;;;;;;;0.80;0.80;;;;;;;20.80;91.96;100504.72;4991317;28;20089;-64
2023/06/30 07:31:22;;;;;;;0.40;0.30;;;;;;;20.84;92.14;100506.19;4986799;28;20047;-63
2023/06/30 07:33:48;;;;;;;0.40;0.35;;;;;;;20.78;92.09;100498.88;4970403;28;20031;-65
2023/06/30 07:36:13;;;;;;;1.83;0.68;;;;;;;20.82;91.64;100496.84;4972424;28;20045;-63
2023/06/30 07:38:38;;;;;;;2.83;0.30;;;;;;;20.78;91.25;100494.19;4981043;28;20035;-64
2023/06/30 07:41:04;;;;;;;0.32;0.22;;;;;;;20.76;91.70;100498.53;4994930;28;20077;-65
2023/06/30 07:43:30;;;;;;;0.73;0.47;;;;;;;20.74;92.06;100482.56;4983129;28;20050;-65
2023/06/30 07:45:55;;;;;;;0.43;0.30;;;;;;;20.74;92.65;100490.75;4974113;28;20398;-68
2023/06/30 07:48:21;;;;;;;1.42;0.55;;;;;;;20.69;93.05;100494.03;4975230;28;20047;-63
2023/06/30 07:50:46;;;;;;;1.73;0.40;;;;;;;20.77;93.31;100495.38;4975181;28;20038;-65
2023/06/30 07:53:12;;;;;;;0.70;0.50;;;;;;;20.79;93.08;100501.19;4958153;28;20027;-63
2023/06/30 07:55:37;;;;;;;1.85;0.22;;;;;;;20.70;92.92;100501.03;4994656;28;20118;-64
2023/06/30 07:58:02;;;;;;;2.20;0.60;;;;;;;20.83;92.54;100503.88;4994375;28;20042;-64
2023/06/30 08:00:29;;;;;;;0.55;0.38;;;;;;;20.77;91.94;100500.84;4988156;28;20069;-63
2023/06/30 08:03:15;;;;;;;1.02;0.50;;;;;;;20.90;91.85;100507.19;4981378;28;20026;-65
2023/06/30 08:05:40;;;;;;;0.70;0.50;;;;;;;20.86;91.26;100508.47;4913036;29;20509;-65
2023/06/30 08:08:06;;;;;;;1.10;0.40;;;;;;;20.74;91.72;100504.44;4920385;29;20052;-64
2023/06/30 08:10:31;;;;;;;1.55;1.00;;;;;;;20.80;91.28;100505.50;4924255;29;20048;-65
2023/06/30 08:12:57;;;;;;;1.38;0.82;;;;;;;20.91;91.05;100503.25;4914176;29;20047;-66
2023/06/30 08:15:22;;;;;;;1.48;0.77;;;;;;;21.07;90.75;100499.75;4914603;29;20040;-63
2023/06/30 08:17:47;;;;;;;1.77;1.30;;;;;;;21.23;90.12;100506.00;4915091;29;20213;-64
2023/06/30 08:20:13;;;;;;;3.25;1.33;;;;;;;21.43;89.80;100503.13;4914616;29;20075;-62
2023/06/30 08:22:38;;;;;;;0.95;0.85;;;;;;;21.63;90.02;100505.72;4912016;29;20032;-66
2023/06/30 08:25:04;;;;;;;4.40;1.33;;;;;;;21.93;89.14;100497.09;4914722;29;20051;-63
2023/06/30 08:27:30;;;;;;;2.08;1.35;;;;;;;22.10;87.64;100501.28;4902252;29;20437;-64
2023/06/30 08:29:56;;;;;;;1.10;1.00;;;;;;;22.45;88.09;100503.72;4933866;29;20066;-63
2023/06/30 08:32:21;;;;;;;2.90;0.88;;;;;;;22.70;86.18;100500.25;4914155;29;20036;-65
2023/06/30 08:34:46;;;;;;;1.60;0.70;;;;;;;23.03;85.91;100507.00;4910147;29;20052;-64
2023/06/30 08:37:12;;;;;;;0.60;0.50;;;;;;;23.39;85.15;100506.59;4909431;29;20056;-64
2023/06/30 08:39:39;;;;;;;1.05;0.70;;;;;;;23.53;83.64;100516.31;4930559;29;20115;-65
2023/06/30 08:42:06;;;;;;;1.63;0.57;;;;;;;23.61;82.89;100512.91;4932185;29;20035;-64
2023/06/30 08:44:32;;;;;;;0.57;0.57;;;;;;;23.68;81.83;100509.09;4954647;28;20039;-65
2023/06/30 08:47:00;;;;;;;0.90;0.40;;;;;;;23.86;80.82;100501.00;4966933;28;20122;-66
2023/06/30 08:49:27;;;;;;;2.42;0.75;;;;;;;23.91;79.37;100494.88;4967253;28;20054;-66
2023/06/30 08:51:55;;;;;;;0.30;0.20;;;;;;;24.09;79.28;100503.28;4962785;28;20490;-64
2023/06/30 08:54:21;;;;;;;2.47;0.40;;;;;;;24.36;79.14;100505.41;4968934;28;20088;-65
2023/06/30 08:56:47;;;;;;;0.35;0.35;;;;;;;24.57;77.30;100508.09;4987373;28;20038;-65
2023/06/30 08:59:12;;;;;;;0.32;0.30;;;;;;;24.76;72.62;100501.47;4993167;28;20510;-66
2023/06/30 09:01:38;;;;;;;2.15;0.52;;;;;;;24.86;72.02;100493.97;4980248;28;20673;-64
2023/06/30 09:04:05;;;;;;;0.85;0.20;;;;;;;24.95;71.83;100492.00;4953820;28;20086;-65
2023/06/30 09:06:35;;;;;;;0.28;0.20;;;;;;;24.91;73.21;100485.88;4952766;28;20027;-65
2023/06/30 09:09:09;;;;;;;1.20;0.35;;;;;;;24.86;73.16;100492.00;4976923;28;20037;-64
2023/06/30 09:11:37;;;;;;;0.38;0.28;;;;;;;24.78;71.91;100485.22;4963752;28;20019;-65
2023/06/30 09:14:04;;;;;;;0.50;0.30;;;;;;;24.92;71.47;100487.41;4954170;28;20043;-65
2023/06/30 09:16:32;;;;;;;0.13;0.13;;;;;;;25.03;70.38;100486.97;4970252;28;20031;-65
2023/06/30 09:18:58;;;;;;;0.63;0.22;;;;;;;25.40;70.79;100485.00;4979073;28;20035;-65
2023/06/30 09:21:24;;;;;;;0.30;0.30;;;;;;;25.74;67.70;100485.47;4988110;28;20073;-65
2023/06/30 09:23:50;;;;;;;0.20;0.20;;;;;;;25.71;64.51;100483.63;4983775;28;20046;-65
2023/06/30 09:26:17;;;;;;;0.70;0.20;;;;;;;25.76;63.54;100499.53;4984812;28;20022;-65
2023/06/30 09:28:43;;;;;;;0.70;0.35;;;;;;;25.56;63.30;100487.47;4992739;28;20038;-66
2023/06/30 09:31:09;;;;;;;0.20;0.20;;;;;;;25.60;64.94;100483.34;4991438;28;20136;-66
2023/06/30 09:33:35;;;;;;;0.20;0.20;;;;;;;25.83;63.27;100492.94;4977211;28;20110;-65
2023/06/30 09:36:03;;;;;;;0.55;0.22;;;;;;;25.97;63.71;100492.31;4972244;28;20046;-64
2023/06/30 09:38:29;;;;;;;0.38;0.22;;;;;;;26.26;61.26;100492.56;4979987;28;20035;-65
2023/06/30 09:40:55;;;;;;;0.22;0.20;;;;;;;26.53;60.67;100494.44;4991027;28;20045;-65
2023/06/30 09:43:25;;;;;;;0.40;0.40;;;;;;;26.50;60.93;100493.38;4991529;28;20026;-64
2023/06/30 09:46:01;;;;;;;0.35;0.03;;;;;;;26.55;61.34;100492.75;4981925;28;20081;-64
2023/06/30 09:48:38;;;;;;;0.20;0.20;;;;;;;26.23;59.92;100495.50;4972462;28;20038;-64
2023/06/30 09:51:06;;;;;;;0.40;0.20;;;;;;;26.30;60.15;100503.44;4973380;28;20693;-62
2023/06/30 09:53:40;;;;;;;0.80;0.28;;;;;;;26.36;60.20;100496.06;4965843;28;20539;-63
2023/06/30 09:56:11;;;;;;;0.30;0.25;;;;;;;26.27;59.26;100505.13;4983742;28;20085;-64
2023/06/30 09:58:39;;;;;;;0.20;0.20;;;;;;;26.19;59.12;100495.66;4969080;28;20423;-65
2023/06/30 10:01:04;;;;;;;2.22;0.45;;;;;;;26.17;57.41;100495.34;4994110;23;20141;-69
2023/06/30 10:03:30;;;;;;;0.20;0.20;;;;;;;26.25;58.19;100488.25;5005505;28;20525;-67
2023/06/30 10:05:56;;;;;;;0.20;0.20;;;;;;;26.21;57.00;100490.41;5011514;28;20030;-67
2023/06/30 10:08:22;;;;;;;0.70;0.40;;;;;;;25.94;59.56;100493.22;4995419;28;20022;-66
2023/06/30 10:10:53;;;;;;;0.25;0.20;;;;;;;25.94;58.34;100482.19;5009562;28;20018;-63
2023/06/30 10:13:19;;;;;;;0.38;0.22;;;;;;;25.96;56.77;100473.47;4993164;28;20067;-63
2023/06/30 10:15:45;;;;;;;0.63;0.22;;;;;;;26.17;56.34;100472.50;5010873;28;20402;-63
2023/06/30 10:18:14;;;;;;;0.40;0.10;;;;;;;26.48;55.72;100468.22;4998372;28;20033;-63
2023/06/30 10:20:41;;;;;;;0.32;0.15;;;;;;;26.48;54.44;100475.75;4989861;28;20116;-66
2023/06/30 10:23:07;;;;;;;0.60;0.20;;;;;;;26.52;53.01;100477.09;5007995;28;20053;-63
2023/06/30 10:25:36;;;;;;;12.98;5.18;;;;;;;26.57;53.66;100484.00;5009222;28;20065;-62
2023/06/30 10:28:02;;;;;;;28.80;8.38;;;;;;;26.83;53.57;100493.38;4993678;28;20093;-64
2023/06/30 10:30:29;;;;;;;58.35;18.25;;;;;;;26.90;50.61;100487.53;4991255;28;20041;-64
2023/06/30 10:32:54;;;;;;;4.95;2.38;;;;;;;27.29;51.00;100480.00;5004339;28;20021;-63
2023/06/30 10:35:20;;;;;;;10.02;5.57;;;;;;;27.55;49.79;100489.34;5001614;28;20053;-69
2023/06/30 10:37:46;;;;;;;2.40;1.27;;;;;;;27.71;49.82;100485.34;5009032;28;20038;-67
2023/06/30 10:40:30;;;;;;;1.15;0.63;;;;;;;27.55;48.83;100481.81;5009056;28;20032;-66
2023/06/30 10:42:57;;;;;;;1.00;0.13;;;;;;;27.36;50.11;100477.66;4995944;28;20048;-65
2023/06/30 10:45:33;;;;;;;0.25;0.20;;;;;;;27.15;50.16;100483.50;5014052;28;20044;-65
2023/06/30 10:48:08;;;;;;;1.08;0.30;;;;;;;26.86;52.33;100484.16;5007423;28;20056;-66
2023/06/30 10:50:41;;;;;;;0.28;0.13;;;;;;;26.52;51.72;100490.13;4995552;28;20034;-64
2023/06/30 10:53:06;;;;;;;0.98;0.45;;;;;;;26.50;50.46;100482.31;4992188;28;20040;-66
2023/06/30 10:55:32;;;;;;;0.30;0.17;;;;;;;26.22;52.39;100486.44;5003974;28;20402;-67
2023/06/30 10:57:58;;;;;;;0.28;0.10;;;;;;;25.98;53.20;100485.56;4987821;28;20026;-66
2023/06/30 11:00:29;;;;;;;0.63;0.28;;;;;;;25.84;52.69;100475.19;5023434;28;20500;-64
2023/06/30 11:02:54;;;;;;;;;;;;;;;25.85;52.61;100476.69;5001701;28;20128;-66
2023/06/30 11:05:24;;;;;;;0.32;0.17;;;;;;;25.83;52.22;100487.44;4995657;28;19991;-64
2023/06/30 11:08:06;;;;;;;0.20;0.20;;;;;;;25.88;54.87;100470.22;5001864;28;20033;-65
2023/06/30 11:10:31;;;;;;;0.10;0.10;;;;;;;25.84;53.59;100466.91;4993508;28;20406;-69
2023/06/30 11:13:00;;;;;;;0.20;0.20;;;;;;;26.10;52.72;100470.06;5018020;28;20017;-65
2023/06/30 11:15:34;;;;;;;0.30;0.30;;;;;;;26.18;51.89;100463.75;4999545;28;20144;-64
2023/06/30 11:18:02;;;;;;;0.20;0.20;;;;;;;26.09;53.71;100466.56;5002175;28;20026;-65
2023/06/30 11:20:29;;;;;;;0.10;0.10;;;;;;;26.17;53.18;100467.72;5013013;28;20458;-64
2023/06/30 11:23:03;;;;;;;0.32;0.30;;;;;;;26.21;51.81;100475.88;5016335;28;20545;-65